createdAt,value
2018-12-05T00:00:29.822Z,3.40
2018-12-05T00:02:59.105Z,3.30
2018-12-05T00:05:28.437Z,3.87
2018-12-05T00:07:57.626Z,3.87
2018-12-05T00:10:26.863Z,4.22
2018-12-05T00:12:56.081Z,5.30
2018-12-05T00:15:25.249Z,4.60
2018-12-05T00:17:54.656Z,4.20
2018-12-05T00:20:23.754Z,6.60
2018-12-05T00:22:53.038Z,3.62
2018-12-05T00:25:22.551Z,3.23
2018-12-05T00:27:51.753Z,4.17
2018-12-05T00:30:20.997Z,5.30
2018-12-05T00:32:50.193Z,3.62
2018-12-05T00:35:19.522Z,4.30
2018-12-05T00:37:48.677Z,3.87
2018-12-05T00:40:18.059Z,4.12
2018-12-05T00:42:47.322Z,4.12
2018-12-05T00:45:16.429Z,4.03
2018-12-05T00:47:45.744Z,3.40
2018-12-05T00:50:15.085Z,4.45
2018-12-05T00:52:45.419Z,4.20
2018-12-05T00:55:14.731Z,5.05
2018-12-05T00:57:43.901Z,4.20
2018-12-05T01:00:13.434Z,3.60
2018-12-05T01:02:42.887Z,5.47
2018-12-05T01:05:12.267Z,4.67
2018-12-05T01:07:41.556Z,4.37
2018-12-05T01:10:10.865Z,5.53
2018-12-05T01:12:40.189Z,4.40
2018-12-05T01:15:09.782Z,3.92
2018-12-05T01:17:39.087Z,4.87
2018-12-05T01:20:08.538Z,4.53
2018-12-05T01:22:37.897Z,4.05
2018-12-05T01:25:07.306Z,4.78
2018-12-05T01:27:36.657Z,3.70
2018-12-05T01:30:06.079Z,3.50
2018-12-05T01:32:35.433Z,4.03
2018-12-05T01:35:04.849Z,5.25
2018-12-05T01:37:34.054Z,7.63
2018-12-05T01:40:03.353Z,5.35
2018-12-05T01:42:32.649Z,3.50
2018-12-05T01:45:01.977Z,5.62
2018-12-05T01:47:31.225Z,4.03
2018-12-05T01:50:00.529Z,4.58
2018-12-05T01:52:29.819Z,4.10
2018-12-05T01:54:58.972Z,3.40
2018-12-05T01:57:28.361Z,5.37
2018-12-05T01:59:57.757Z,4.50
2018-12-05T02:02:27.187Z,3.95
2018-12-05T02:04:56.488Z,6.28
2018-12-05T02:07:25.866Z,5.95
2018-12-05T02:09:55.416Z,4.10
2018-12-05T02:12:24.880Z,5.47
2018-12-05T02:14:54.146Z,4.47
2018-12-05T02:17:23.368Z,3.90
2018-12-05T02:19:52.576Z,3.85
2018-12-05T02:22:21.568Z,3.33
2018-12-05T02:24:50.793Z,3.60
2018-12-05T02:27:20.140Z,4.30
2018-12-05T02:29:54.215Z,4.28
2018-12-05T02:32:22.858Z,4.58
2018-12-05T02:34:51.409Z,6.17
2018-12-05T02:37:20.023Z,4.62
2018-12-05T02:39:48.615Z,4.25
2018-12-05T02:42:17.232Z,3.87
2018-12-05T02:44:45.915Z,4.55
2018-12-05T02:47:14.583Z,4.78
2018-12-05T02:49:43.143Z,5.07
2018-12-05T02:52:11.719Z,3.50
2018-12-05T02:54:40.296Z,3.83
2018-12-05T02:57:09.009Z,4.40
2018-12-05T02:59:37.583Z,4.25
2018-12-05T03:02:06.212Z,4.40
2018-12-05T03:04:34.806Z,4.30
2018-12-05T03:07:03.410Z,5.58
2018-12-05T03:09:32.262Z,4.97
2018-12-05T03:12:00.859Z,5.37
2018-12-05T03:14:29.535Z,3.95
2018-12-05T03:16:58.132Z,3.92
2018-12-05T03:19:26.668Z,5.40
2018-12-05T03:21:55.273Z,5.80
2018-12-05T03:24:23.890Z,4.40
2018-12-05T03:26:52.631Z,3.90
2018-12-05T03:29:21.251Z,3.90
2018-12-05T03:31:49.893Z,3.90
2018-12-05T03:34:18.474Z,4.00
2018-12-05T03:36:47.091Z,3.72
2018-12-05T03:39:15.730Z,3.52
2018-12-05T03:41:44.343Z,4.65
2018-12-05T03:44:13.077Z,5.53
2018-12-05T03:46:41.601Z,4.27
2018-12-05T03:49:10.188Z,4.17
2018-12-05T03:51:38.770Z,4.92
2018-12-05T03:54:07.370Z,4.70
2018-12-05T03:56:36.035Z,4.90
2018-12-05T03:59:04.615Z,4.93
2018-12-05T04:01:34.834Z,5.37
2018-12-05T04:04:03.716Z,4.78
2018-12-05T04:06:32.330Z,5.97
2018-12-05T04:09:00.969Z,5.15
2018-12-05T04:11:29.554Z,5.23
2018-12-05T04:13:58.197Z,5.25
2018-12-05T04:16:26.822Z,4.40
2018-12-05T04:18:55.417Z,4.40
2018-12-05T04:21:24.053Z,4.67
2018-12-05T04:23:52.674Z,3.98
2018-12-05T04:26:21.240Z,4.47
2018-12-05T04:28:49.853Z,4.78
2018-12-05T04:31:18.458Z,3.72
2018-12-05T04:33:47.051Z,4.58
2018-12-05T04:36:15.657Z,4.05
2018-12-05T04:38:44.234Z,4.15
2018-12-05T04:41:12.847Z,5.67
2018-12-05T04:43:41.388Z,4.08
2018-12-05T04:46:10.036Z,4.67
2018-12-05T04:48:38.621Z,3.47
2018-12-05T04:51:07.256Z,5.15
2018-12-05T04:53:35.928Z,3.80
2018-12-05T04:56:04.586Z,4.00
2018-12-05T04:58:33.193Z,4.53
2018-12-05T05:01:01.864Z,5.10
2018-12-05T05:03:30.484Z,5.00
2018-12-05T05:05:59.140Z,4.62
2018-12-05T05:08:27.724Z,3.80
2018-12-05T05:10:58.806Z,3.77
2018-12-05T05:13:27.436Z,4.10
2018-12-05T05:15:56.036Z,3.97
2018-12-05T05:18:24.690Z,5.30
2018-12-05T05:20:53.305Z,4.30
2018-12-05T05:23:22.001Z,4.40
2018-12-05T05:25:50.693Z,5.53
2018-12-05T05:28:19.264Z,5.10
2018-12-05T05:30:47.917Z,4.40
2018-12-05T05:33:16.571Z,4.43
2018-12-05T05:35:46.677Z,5.65
2018-12-05T05:38:15.318Z,4.70
2018-12-05T05:40:44.040Z,4.58
2018-12-05T05:43:12.728Z,5.10
2018-12-05T05:45:41.435Z,5.72
2018-12-05T05:48:10.193Z,5.08
2018-12-05T05:50:38.810Z,4.75
2018-12-05T05:53:07.477Z,4.83
2018-12-05T05:55:36.113Z,6.30
2018-12-05T05:58:05.066Z,6.83
2018-12-05T06:00:33.647Z,4.87
2018-12-05T06:03:02.325Z,5.17
2018-12-05T06:05:30.963Z,5.47
2018-12-05T06:07:59.566Z,5.67
2018-12-05T06:10:28.237Z,4.90
2018-12-05T06:12:56.822Z,6.30
2018-12-05T06:15:25.529Z,6.10
2018-12-05T06:17:54.113Z,5.80
2018-12-05T06:20:22.782Z,5.55
2018-12-05T06:22:51.473Z,6.50
2018-12-05T06:25:20.227Z,5.97
2018-12-05T06:27:48.882Z,5.83
2018-12-05T06:30:17.469Z,6.75
2018-12-05T06:32:46.142Z,5.30
2018-12-05T06:35:14.726Z,7.12
2018-12-05T06:37:43.437Z,7.10
2018-12-05T06:40:12.076Z,7.35
2018-12-05T06:42:40.714Z,5.20
2018-12-05T06:45:09.464Z,6.67
2018-12-05T06:47:38.222Z,5.83
2018-12-05T06:50:08.031Z,4.90
2018-12-05T06:52:36.748Z,7.58
2018-12-05T06:55:06.332Z,6.80
2018-12-05T06:57:34.946Z,6.20
2018-12-05T07:00:03.894Z,6.00
2018-12-05T07:02:32.530Z,5.70
2018-12-05T07:05:01.281Z,7.35
2018-12-05T07:07:29.909Z,8.08
2018-12-05T07:09:58.570Z,6.05
2018-12-05T07:12:27.172Z,6.45
2018-12-05T07:14:55.828Z,8.50
2018-12-05T07:17:24.456Z,7.10
2018-12-05T07:19:53.098Z,7.45
2018-12-05T07:22:21.744Z,8.03
2018-12-05T07:24:50.466Z,6.00
2018-12-05T07:27:19.177Z,8.00
2018-12-05T07:29:47.866Z,8.30
2018-12-05T07:32:16.511Z,9.77
2018-12-05T07:34:45.104Z,7.15
2018-12-05T07:37:13.957Z,6.90
2018-12-05T07:39:42.580Z,7.80
2018-12-05T07:42:11.173Z,7.58
2018-12-05T07:44:39.803Z,8.28
2018-12-05T07:47:08.468Z,7.30
2018-12-05T07:49:37.148Z,8.48
2018-12-05T07:52:05.930Z,7.70
2018-12-05T07:54:34.611Z,7.25
2018-12-05T07:57:03.279Z,7.80
2018-12-05T07:59:31.935Z,6.70
2018-12-05T08:02:00.527Z,7.23
2018-12-05T08:04:29.255Z,7.67
2018-12-05T08:06:58.214Z,7.35
2018-12-05T08:09:26.841Z,8.67
2018-12-05T08:11:55.507Z,8.65
2018-12-05T08:14:24.189Z,9.18
2018-12-05T08:16:52.814Z,7.72
2018-12-05T08:19:21.467Z,8.30
2018-12-05T08:21:50.130Z,9.33
2018-12-05T08:24:18.736Z,10.03
2018-12-05T08:26:47.380Z,10.00
2018-12-05T08:29:15.864Z,9.05
2018-12-05T08:31:44.120Z,8.93
2018-12-05T08:34:12.552Z,7.97
2018-12-05T08:36:40.897Z,9.88
2018-12-05T08:39:09.933Z,9.08
2018-12-05T08:41:38.183Z,10.03
2018-12-05T08:44:08.229Z,8.30
2018-12-05T08:46:36.540Z,7.33
2018-12-05T08:49:04.921Z,8.67
2018-12-05T08:51:33.237Z,7.80
2018-12-05T08:54:01.563Z,9.03
2018-12-05T08:56:29.871Z,8.30
2018-12-05T08:58:58.130Z,10.60
2018-12-05T09:01:26.562Z,9.35
2018-12-05T09:03:54.871Z,8.45
2018-12-05T09:06:23.165Z,8.48
2018-12-05T09:08:51.531Z,6.87
2018-12-05T09:11:19.962Z,8.23
2018-12-05T09:13:48.221Z,7.10
2018-12-05T09:16:16.870Z,9.40
2018-12-05T09:18:46.186Z,7.90
2018-12-05T09:21:14.610Z,8.08
2018-12-05T09:23:42.943Z,9.30
2018-12-05T09:26:11.305Z,6.67
2018-12-05T09:28:39.566Z,9.78
2018-12-05T09:31:08.000Z,7.95
2018-12-05T09:33:36.451Z,8.28
2018-12-05T09:36:04.911Z,8.38
2018-12-05T09:38:33.208Z,8.18
2018-12-05T09:41:01.878Z,8.63
2018-12-05T09:43:30.665Z,9.70
2018-12-05T09:45:58.957Z,8.03
2018-12-05T09:48:27.206Z,7.47
2018-12-05T09:50:55.513Z,7.65
2018-12-05T09:53:23.805Z,7.80
2018-12-05T09:55:52.142Z,7.08
2018-12-05T09:58:20.387Z,5.83
2018-12-05T10:00:48.716Z,6.95
2018-12-05T10:03:17.000Z,7.05
2018-12-05T10:05:45.275Z,5.90
2018-12-05T10:08:13.586Z,7.10
2018-12-05T10:10:41.899Z,5.20
2018-12-05T10:13:10.245Z,6.80
2018-12-05T10:15:38.605Z,5.70
2018-12-05T10:18:06.926Z,5.75
2018-12-05T10:20:35.293Z,5.85
2018-12-05T10:23:03.678Z,6.13
2018-12-05T10:25:32.063Z,5.42
2018-12-05T10:28:00.309Z,5.80
2018-12-05T10:30:28.667Z,4.97
2018-12-05T10:32:56.922Z,6.30
2018-12-05T10:35:25.345Z,6.43
2018-12-05T10:37:54.518Z,4.70
2018-12-05T10:40:22.958Z,6.00
2018-12-05T10:42:51.306Z,5.78
2018-12-05T10:45:19.685Z,6.78
2018-12-05T10:47:47.907Z,5.87
2018-12-05T10:50:16.270Z,5.08
2018-12-05T10:52:44.684Z,5.47
2018-12-05T10:55:13.066Z,4.67
2018-12-05T10:57:41.306Z,5.42
2018-12-05T11:00:14.116Z,5.53
2018-12-05T11:02:48.829Z,7.05
2018-12-05T11:05:22.474Z,5.25
2018-12-05T11:07:56.266Z,5.75
2018-12-05T11:10:30.004Z,5.55
2018-12-05T11:13:03.688Z,5.58
2018-12-05T11:15:37.400Z,4.97
2018-12-05T11:18:11.181Z,6.05
2018-12-05T11:20:45.066Z,5.62
2018-12-05T11:23:21.430Z,4.65
2018-12-05T11:25:50.721Z,5.03
2018-12-05T11:28:19.085Z,5.62
2018-12-05T11:30:47.334Z,8.45
2018-12-05T11:33:15.804Z,6.42
2018-12-05T11:35:44.156Z,8.13
2018-12-05T11:38:12.612Z,5.25
2018-12-05T11:40:40.955Z,8.00
2018-12-05T11:43:09.452Z,4.08
2018-12-05T11:45:37.742Z,4.60
2018-12-05T11:48:06.109Z,5.80
2018-12-05T11:50:34.448Z,4.80
2018-12-05T11:53:02.747Z,6.20
2018-12-05T11:55:30.923Z,5.22
2018-12-05T11:57:59.306Z,5.20
2018-12-05T12:00:27.608Z,5.25
2018-12-05T12:02:56.090Z,4.70
2018-12-05T12:05:24.845Z,4.78
2018-12-05T12:07:53.323Z,6.47
2018-12-05T12:10:25.999Z,3.95
2018-12-05T12:12:59.785Z,2.52
2018-12-05T12:15:28.157Z,3.72
2018-12-05T12:17:56.641Z,5.35
2018-12-05T12:20:25.091Z,5.40
2018-12-05T12:22:53.418Z,4.05
2018-12-05T12:25:21.768Z,3.93
2018-12-05T12:27:50.134Z,5.58
2018-12-05T12:30:18.364Z,3.25
2018-12-05T12:32:46.660Z,3.33
2018-12-05T12:35:15.254Z,3.80
2018-12-05T12:37:43.726Z,4.25
2018-12-05T12:40:12.140Z,3.80
2018-12-05T12:42:40.470Z,4.95
2018-12-05T12:45:08.827Z,3.55
2018-12-05T12:47:37.096Z,3.33
2018-12-05T12:50:06.088Z,3.87
2018-12-05T12:52:34.336Z,6.40
2018-12-05T12:55:02.667Z,3.45
2018-12-05T12:57:30.987Z,3.62
2018-12-05T12:59:59.293Z,3.05
2018-12-05T13:02:28.117Z,3.10
2018-12-05T13:04:56.420Z,4.00
2018-12-05T13:07:24.663Z,3.58
2018-12-05T13:09:53.021Z,5.90
2018-12-05T13:12:29.319Z,3.47
2018-12-05T13:14:57.697Z,4.15
2018-12-05T13:17:26.273Z,3.27
2018-12-05T13:19:54.820Z,4.60
2018-12-05T13:22:23.102Z,3.45
2018-12-05T13:24:51.744Z,5.12
2018-12-05T13:27:20.122Z,3.58
2018-12-05T13:29:48.421Z,5.50
2018-12-05T13:32:16.614Z,4.67
2018-12-05T13:34:44.903Z,4.28
2018-12-05T13:37:13.220Z,3.50
2018-12-05T13:39:41.659Z,4.17
2018-12-05T13:42:10.069Z,5.75
2018-12-05T13:44:38.387Z,4.77
2018-12-05T13:47:06.695Z,3.77
2018-12-05T13:49:35.128Z,5.47
2018-12-05T13:52:03.517Z,6.07
2018-12-05T13:54:31.828Z,4.78
2018-12-05T13:57:00.112Z,4.33
2018-12-05T13:59:28.321Z,5.08
2018-12-05T14:01:57.343Z,4.60
2018-12-05T14:04:26.534Z,5.70
2018-12-05T14:06:54.836Z,5.78
2018-12-05T14:09:23.132Z,4.63
2018-12-05T14:11:51.651Z,5.17
2018-12-05T14:14:19.909Z,4.30
2018-12-05T14:16:48.279Z,5.25
2018-12-05T14:19:16.605Z,7.35
2018-12-05T14:21:44.945Z,6.10
2018-12-05T14:24:13.211Z,4.95
2018-12-05T14:26:41.551Z,5.12
2018-12-05T14:29:09.777Z,3.92
2018-12-05T14:31:39.176Z,4.30
2018-12-05T14:34:07.473Z,6.63
2018-12-05T14:36:35.979Z,6.83
2018-12-05T14:39:06.268Z,5.15
2018-12-05T14:41:34.776Z,3.62
2018-12-05T14:44:03.202Z,4.15
2018-12-05T14:46:31.545Z,4.25
2018-12-05T14:48:59.853Z,6.22
2018-12-05T14:51:28.174Z,4.87
2018-12-05T14:53:56.461Z,5.65
2018-12-05T14:56:24.743Z,6.90
2018-12-05T14:58:53.044Z,6.90
2018-12-05T15:01:21.789Z,4.83
2018-12-05T15:03:51.779Z,4.85
2018-12-05T15:06:20.257Z,5.37
2018-12-05T15:08:48.657Z,4.37
2018-12-05T15:11:17.025Z,5.85
2018-12-05T15:13:45.322Z,4.73
2018-12-05T15:16:13.670Z,5.65
2018-12-05T15:18:41.916Z,5.08
2018-12-05T15:21:10.243Z,4.90
2018-12-05T15:23:38.582Z,5.67
2018-12-05T15:26:07.009Z,5.07
2018-12-05T15:28:35.400Z,8.03
2018-12-05T15:31:03.778Z,5.53
2018-12-05T15:33:32.115Z,4.75
2018-12-05T15:36:00.546Z,7.12
2018-12-05T15:38:28.953Z,4.97
2018-12-05T15:40:57.315Z,6.23
2018-12-05T15:43:25.598Z,4.53
2018-12-05T15:45:53.920Z,6.85
2018-12-05T15:48:22.188Z,4.28
2018-12-05T15:50:50.560Z,5.37
2018-12-05T15:53:18.951Z,4.58
2018-12-05T15:55:47.314Z,5.80
2018-12-05T15:58:15.675Z,6.08
2018-12-05T16:00:44.047Z,4.00
2018-12-05T16:03:12.325Z,5.12
2018-12-05T16:05:40.699Z,4.10
2018-12-05T16:08:08.945Z,5.37
2018-12-05T16:10:37.281Z,5.95
2018-12-05T16:13:05.669Z,5.35
2018-12-05T16:15:34.065Z,5.33
2018-12-05T16:18:02.591Z,6.33
2018-12-05T16:20:30.848Z,6.50
2018-12-05T16:22:59.185Z,7.12
2018-12-05T16:25:27.681Z,7.12
2018-12-05T16:27:55.936Z,6.00
2018-12-05T16:30:24.414Z,6.33
2018-12-05T16:32:52.840Z,7.92
2018-12-05T16:35:22.123Z,5.85
2018-12-05T16:37:51.558Z,6.60
2018-12-05T16:40:20.062Z,6.42
2018-12-05T16:42:49.368Z,7.15
2018-12-05T16:45:17.741Z,6.50
2018-12-05T16:47:46.081Z,7.05
2018-12-05T16:50:14.506Z,7.47
2018-12-05T16:52:42.891Z,6.22
2018-12-05T16:55:11.216Z,7.00
2018-12-05T16:57:39.618Z,8.10
2018-12-05T17:00:10.068Z,7.65
2018-12-05T17:02:38.528Z,7.87
2018-12-05T17:05:07.145Z,6.72
2018-12-05T17:07:35.495Z,6.12
2018-12-05T17:10:03.945Z,7.25
2018-12-05T17:12:32.342Z,8.60
2018-12-05T17:15:00.657Z,7.70
2018-12-05T17:17:28.957Z,6.67
2018-12-05T17:19:57.235Z,7.70
2018-12-05T17:22:25.503Z,8.70
2018-12-05T17:24:55.471Z,6.27
2018-12-05T17:27:24.175Z,7.03
2018-12-05T17:29:52.488Z,7.33
2018-12-05T17:32:20.865Z,6.67
2018-12-05T17:34:49.115Z,7.00
2018-12-05T17:37:17.488Z,6.97
2018-12-05T17:39:45.739Z,8.30
2018-12-05T17:42:14.104Z,7.78
2018-12-05T17:44:42.373Z,9.28
2018-12-05T17:47:10.655Z,6.50
2018-12-05T17:49:38.897Z,8.63
2018-12-05T17:52:10.284Z,7.83
2018-12-05T17:54:38.574Z,8.13
2018-12-05T17:57:06.877Z,6.35
2018-12-05T17:59:35.314Z,7.37
2018-12-05T18:02:03.674Z,7.08
2018-12-05T18:04:31.928Z,7.40
2018-12-05T18:07:00.273Z,7.62
2018-12-05T18:09:28.545Z,6.03
2018-12-05T18:11:56.945Z,6.53
2018-12-05T18:14:26.070Z,8.10
2018-12-05T18:16:54.446Z,8.73
2018-12-05T18:19:22.735Z,7.35
2018-12-05T18:21:50.994Z,9.20
2018-12-05T18:24:19.345Z,7.05
2018-12-05T18:26:47.588Z,8.03
2018-12-05T18:29:15.924Z,7.92
2018-12-05T18:31:44.225Z,7.42
2018-12-05T18:34:12.883Z,7.47
2018-12-05T18:36:41.388Z,7.50
2018-12-05T18:39:09.772Z,7.72
2018-12-05T18:41:38.133Z,7.42
2018-12-05T18:44:06.512Z,6.10
2018-12-05T18:46:36.263Z,7.55
2018-12-05T18:49:04.634Z,9.20
2018-12-05T18:51:32.946Z,8.93
2018-12-05T18:54:01.272Z,8.38
2018-12-05T18:56:29.587Z,6.50
2018-12-05T18:58:57.811Z,6.25
2018-12-05T19:01:26.155Z,6.58
2018-12-05T19:03:54.363Z,7.90
2018-12-05T19:06:22.717Z,5.90
2018-12-05T19:08:51.039Z,7.03
2018-12-05T19:11:19.380Z,6.10
2018-12-05T19:13:53.040Z,7.47
2018-12-05T19:16:21.312Z,8.15
2018-12-05T19:18:49.542Z,6.37
2018-12-05T19:21:17.907Z,7.42
2018-12-05T19:23:47.178Z,7.40
2018-12-05T19:26:15.885Z,8.00
2018-12-05T19:28:44.126Z,5.55
2018-12-05T19:31:19.242Z,6.53
2018-12-05T19:33:42.668Z,7.22
2018-12-05T19:36:10.871Z,7.70
2018-12-05T19:38:39.162Z,6.42
2018-12-05T19:41:07.405Z,6.15
2018-12-05T19:43:36.845Z,6.28
2018-12-05T19:46:05.182Z,5.22
2018-12-05T19:48:33.586Z,6.03
2018-12-05T19:51:02.804Z,6.53
2018-12-05T19:53:31.066Z,6.20
2018-12-05T19:55:59.380Z,7.17
2018-12-05T19:58:27.730Z,6.97
2018-12-05T20:00:56.061Z,5.87
2018-12-05T20:03:24.338Z,6.45
2018-12-05T20:05:52.547Z,6.03
2018-12-05T20:08:20.883Z,6.28
2018-12-05T20:10:49.127Z,5.40
2018-12-05T20:13:17.444Z,5.70
2018-12-05T20:15:45.818Z,6.20
2018-12-05T20:18:14.255Z,6.30
2018-12-05T20:20:44.155Z,5.83
2018-12-05T20:23:12.467Z,5.30
2018-12-05T20:25:40.706Z,6.08
2018-12-05T20:28:08.951Z,6.10
2018-12-05T20:30:37.213Z,6.00
2018-12-05T20:33:05.615Z,5.60
2018-12-05T20:35:33.939Z,6.92
2018-12-05T20:38:02.257Z,6.87
2018-12-05T20:40:30.632Z,6.20
2018-12-05T20:42:59.056Z,5.17
2018-12-05T20:45:27.397Z,4.93
2018-12-05T20:47:55.734Z,5.22
2018-12-05T20:50:23.999Z,5.50
2018-12-05T20:52:53.878Z,5.12
2018-12-05T20:55:22.137Z,6.17
2018-12-05T20:57:50.673Z,5.57
2018-12-05T21:00:19.025Z,7.40
2018-12-05T21:02:47.362Z,5.35
2018-12-05T21:05:15.746Z,5.85
2018-12-05T21:07:44.039Z,7.35
2018-12-05T21:10:12.306Z,5.93
2018-12-05T21:12:40.660Z,6.40
2018-12-05T21:15:09.067Z,5.70
2018-12-05T21:17:37.442Z,6.15
2018-12-05T21:20:05.816Z,7.50
2018-12-05T21:22:34.091Z,6.67
2018-12-05T21:25:04.117Z,5.60
2018-12-05T21:27:32.488Z,6.05
2018-12-05T21:30:00.838Z,6.75
2018-12-05T21:32:29.234Z,7.37
2018-12-05T21:34:57.529Z,7.30
2018-12-05T21:37:25.902Z,6.37
2018-12-05T21:39:54.094Z,6.12
2018-12-05T21:42:22.331Z,8.25
2018-12-05T21:44:50.595Z,5.72
2018-12-05T21:47:18.911Z,6.47
2018-12-05T21:49:47.216Z,7.53
2018-12-05T21:52:15.543Z,7.50
2018-12-05T21:54:43.826Z,5.77
2018-12-05T21:57:13.319Z,7.55
2018-12-05T21:59:41.579Z,7.35
2018-12-05T22:02:09.800Z,6.30
2018-12-05T22:04:38.343Z,6.23
2018-12-05T22:07:06.725Z,6.62
2018-12-05T22:09:34.987Z,7.75
2018-12-05T22:12:03.280Z,5.83
2018-12-05T22:14:31.504Z,7.53
2018-12-05T22:17:00.080Z,6.20
2018-12-05T22:19:28.445Z,5.95
2018-12-05T22:21:56.675Z,6.60
2018-12-05T22:24:24.927Z,5.87
2018-12-05T22:26:53.120Z,7.17
2018-12-05T22:29:22.215Z,6.00
2018-12-05T22:31:50.527Z,6.08
2018-12-05T22:34:18.804Z,8.80
2018-12-05T22:36:47.092Z,6.67
2018-12-05T22:39:15.327Z,7.20
2018-12-05T22:41:43.630Z,6.78
2018-12-05T22:44:11.887Z,6.47
2018-12-05T22:46:40.280Z,5.85
2018-12-05T22:49:08.641Z,7.67
2018-12-05T22:51:36.900Z,8.20
2018-12-05T22:54:05.206Z,8.07
2018-12-05T22:56:33.549Z,6.00
2018-12-05T22:59:01.824Z,7.53
2018-12-05T23:01:30.154Z,7.12
2018-12-05T23:03:58.457Z,5.72
2018-12-05T23:06:26.700Z,5.55
2018-12-05T23:08:54.976Z,7.60
2018-12-05T23:11:23.201Z,7.30
2018-12-05T23:13:51.476Z,6.40
2018-12-05T23:16:19.884Z,6.70
2018-12-05T23:18:48.204Z,7.90
2018-12-05T23:21:16.570Z,7.67
2018-12-05T23:23:44.998Z,6.20
2018-12-05T23:26:13.296Z,8.50
2018-12-05T23:28:41.595Z,6.30
2018-12-05T23:31:09.977Z,8.15
2018-12-05T23:33:38.278Z,6.03
2018-12-05T23:36:06.761Z,5.77
2018-12-05T23:38:35.199Z,6.62
2018-12-05T23:41:03.707Z,7.40
2018-12-05T23:43:32.122Z,7.83
2018-12-05T23:46:00.608Z,7.97
2018-12-05T23:48:28.901Z,6.78
2018-12-05T23:50:57.226Z,6.47
2018-12-05T23:53:25.497Z,6.85
2018-12-05T23:55:53.910Z,7.00
2018-12-05T23:58:22.262Z,7.40
